Time;durP1;ratioP1;P1;durP2;ratioP2;P2;SDS_P1;SDS_P2;PMS_P1;PMS_P2;Temp;Humidity;BMP_temperature;BMP_pressure;BME280_temperature;BME280_humidity;BME280_pressure;Samples;Min_cycle;Max_cycle;Signal;HPM_P1;HPM_P2
2023/06/23 00:00:40;;;;;;;7.55;4.03;;;;;;;21.73;67.74;101043.53;10180994;28;96895;-82
2023/06/23 00:05:44;;;;;;;6.07;4.53;;;;;;;21.52;68.69;101053.97;10180507;28;96776;-81
2023/06/23 00:10:51;;;;;;;5.25;3.85;;;;;;;21.62;68.23;101048.81;10180295;28;96656;-81
2023/06/23 00:15:54;;;;;;;6.30;4.50;;;;;;;21.79;67.71;101045.75;10180105;28;96823;-82
2023/06/23 00:20:58;;;;;;;6.47;4.37;;;;;;;21.76;67.74;101044.13;10181026;28;96602;-82
2023/06/23 00:26:03;;;;;;;5.85;4.10;;;;;;;21.91;67.54;101052.88;10180154;28;96644;-82
2023/06/23 00:31:07;;;;;;;6.72;4.53;;;;;;;21.93;67.21;101049.13;10180324;28;97406;-81
2023/06/23 00:36:10;;;;;;;6.40;4.37;;;;;;;21.90;67.38;101043.16;10178745;28;96805;-82
2023/06/23 00:41:15;;;;;;;6.43;4.13;;;;;;;21.76;67.64;101046.81;10179080;28;96700;-81
2023/06/23 00:46:21;;;;;;;6.30;4.45;;;;;;;21.81;67.74;101038.47;10178967;28;96778;-82
2023/06/23 00:51:25;;;;;;;6.47;4.45;;;;;;;21.55;68.39;101040.38;10179052;28;96807;-81
2023/06/23 00:56:31;;;;;;;6.28;4.85;;;;;;;21.49;68.69;101035.44;10178646;28;96646;-82
2023/06/23 01:01:37;;;;;;;6.70;4.43;;;;;;;21.37;69.21;101039.88;10179211;28;96713;-82
2023/06/23 01:06:46;;;;;;;5.97;4.32;;;;;;;21.47;68.89;101027.50;10178394;28;98041;-82
2023/06/23 01:11:59;;;;;;;5.57;4.00;;;;;;;21.08;69.95;101025.00;10179644;28;96716;-82
2023/06/23 01:17:13;;;;;;;6.68;4.25;;;;;;;21.33;69.53;101024.09;10177874;28;97681;-82
2023/06/23 01:22:28;;;;;;;6.78;4.38;;;;;;;21.33;69.13;101021.44;10178612;28;96646;-81
2023/06/23 01:27:57;;;;;;;6.50;4.07;;;;;;;21.29;69.21;101019.97;10177041;28;96800;-81
2023/06/23 01:33:10;;;;;;;6.38;4.55;;;;;;;21.22;69.38;101013.34;10178360;28;96916;-81
2023/06/23 01:38:19;;;;;;;7.28;4.57;;;;;;;21.13;69.61;101013.94;10177648;28;96727;-81
2023/06/23 01:43:44;;;;;;;6.03;4.45;;;;;;;21.15;69.61;101012.03;10172686;28;96582;-82
2023/06/23 01:48:50;;;;;;;5.65;3.85;;;;;;;21.02;69.90;101011.16;10177648;28;97533;-82
2023/06/23 01:53:55;;;;;;;6.45;4.40;;;;;;;21.06;69.48;101010.84;10176255;28;97254;-82
2023/06/23 01:59:00;;;;;;;5.80;4.55;;;;;;;21.05;69.60;101010.97;10177166;28;96625;-81
2023/06/23 02:04:08;;;;;;;5.95;4.32;;;;;;;20.87;70.41;101015.78;10177721;28;96907;-81
2023/06/23 02:09:18;;;;;;;6.15;4.40;;;;;;;20.72;71.34;101013.31;10177065;28;96722;-81
2023/06/23 02:14:23;;;;;;;8.45;4.85;;;;;;;20.67;71.13;101013.63;10175864;28;96629;-81
2023/06/23 02:19:29;;;;;;;8.07;4.88;;;;;;;20.67;71.01;101007.44;10175707;28;96806;-82
2023/06/23 02:24:33;;;;;;;7.60;5.38;;;;;;;20.67;71.20;101010.94;10176643;28;96697;-82
2023/06/23 02:29:38;;;;;;;7.05;4.53;;;;;;;20.41;71.97;101011.88;10176567;28;96640;-82
2023/06/23 02:34:43;;;;;;;6.43;4.57;;;;;;;20.51;71.95;101006.78;10176080;28;96673;-82
2023/06/23 02:39:51;;;;;;;7.57;4.57;;;;;;;20.35;72.89;101004.28;10176601;28;97046;-82
2023/06/23 02:44:58;;;;;;;8.70;4.88;;;;;;;20.27;73.62;101001.25;10175683;28;96698;-82
2023/06/23 02:50:06;;;;;;;8.48;5.35;;;;;;;20.11;74.08;100997.91;10175908;28;96631;-81
2023/06/23 02:55:12;;;;;;;7.68;5.15;;;;;;;20.04;74.39;100994.78;10175722;28;96699;-82
2023/06/23 03:00:22;;;;;;;7.43;4.75;;;;;;;20.06;73.86;101000.03;10175630;28;96721;-82
2023/06/23 03:05:27;;;;;;;8.57;5.10;;;;;;;19.95;74.74;100997.19;10179117;28;96687;-81
2023/06/23 03:10:31;;;;;;;7.68;4.70;;;;;;;19.98;74.73;100999.66;10180992;28;96824;-82
2023/06/23 03:15:36;;;;;;;6.60;4.70;;;;;;;19.91;75.01;101004.56;10181596;28;96987;-81
2023/06/23 03:20:47;;;;;;;6.97;4.63;;;;;;;19.97;74.54;101009.50;10182410;28;96629;-82
2023/06/23 03:25:50;;;;;;;8.32;4.68;;;;;;;19.93;74.59;101012.47;10182083;28;96969;-81
2023/06/23 03:30:58;;;;;;;7.27;5.07;;;;;;;19.86;75.25;101005.81;10181775;28;96789;-82
2023/06/23 03:36:07;;;;;;;7.03;5.05;;;;;;;19.86;75.04;101019.16;10181643;28;96701;-82
2023/06/23 03:41:12;;;;;;;7.32;4.72;;;;;;;19.79;75.30;101016.03;10180951;28;98062;-82
2023/06/23 03:46:20;;;;;;;7.25;5.13;;;;;;;19.78;75.21;101011.69;10141970;28;96832;-82
2023/06/23 03:51:28;;;;;;;6.85;5.13;;;;;;;19.72;75.49;101009.38;10151252;28;96720;-81
2023/06/23 03:56:35;;;;;;;6.88;4.90;;;;;;;19.65;75.59;101013.41;10181018;28;96734;-82
2023/06/23 04:01:41;;;;;;;6.60;4.78;;;;;;;19.57;76.15;101010.41;10179779;28;96668;-81
2023/06/23 04:06:48;;;;;;;6.60;4.57;;;;;;;19.52;76.47;101016.97;10180836;28;96771;-81
2023/06/23 04:11:53;;;;;;;7.68;5.20;;;;;;;19.46;76.84;101020.91;10180690;28;96778;-82
2023/06/23 04:16:58;;;;;;;6.82;4.90;;;;;;;19.38;77.39;101019.63;10178727;28;97196;-82
2023/06/23 04:22:05;;;;;;;7.57;5.53;;;;;;;19.35;77.24;101025.19;10180429;28;96594;-82
2023/06/23 04:27:12;;;;;;;8.63;5.50;;;;;;;19.24;78.48;101031.19;10180222;28;96684;-81
2023/06/23 04:32:18;;;;;;;7.93;5.35;;;;;;;19.31;77.41;101037.84;10179451;28;97353;-81
2023/06/23 04:37:27;;;;;;;8.32;5.20;;;;;;;19.33;77.36;101038.63;10180411;28;96716;-81
2023/06/23 04:42:46;;;;;;;9.60;5.72;;;;;;;19.26;77.74;101043.50;10179826;28;96873;-82
2023/06/23 04:47:57;;;;;;;9.10;5.38;;;;;;;19.20;77.84;101043.88;10183802;23;97309;-81
2023/06/23 04:53:06;;;;;;;7.57;5.32;;;;;;;19.25;77.52;101047.09;10178711;28;97014;-82
2023/06/23 04:58:12;;;;;;;7.70;5.47;;;;;;;19.22;77.47;101054.44;10179004;28;96669;-81
2023/06/23 05:03:16;;;;;;;7.95;5.03;;;;;;;19.20;77.81;101059.00;10179214;28;96632;-81
2023/06/23 05:08:24;;;;;;;10.07;5.35;;;;;;;19.16;78.25;101052.19;10178353;28;96780;-82
2023/06/23 05:13:31;;;;;;;10.10;5.40;;;;;;;19.11;78.09;101048.94;10178778;28;97090;-81
2023/06/23 05:18:35;;;;;;;6.30;4.40;;;;;;;19.09;78.47;101049.00;10178367;28;96648;-82
2023/06/23 05:23:41;;;;;;;7.43;5.50;;;;;;;19.13;78.14;101052.34;10178132;28;96826;-81
2023/06/23 05:28:49;;;;;;;7.78;5.28;;;;;;;19.11;78.02;101054.28;10178121;28;96644;-81
2023/06/23 05:33:54;;;;;;;7.28;5.03;;;;;;;19.03;79.13;101060.06;10178267;28;97248;-81
2023/06/23 05:39:00;;;;;;;7.78;4.97;;;;;;;19.11;78.46;101051.59;10178009;28;96879;-82
2023/06/23 05:44:03;;;;;;;7.68;4.78;;;;;;;19.25;78.58;101052.44;10176282;28;96721;-82
2023/06/23 05:49:13;;;;;;;9.85;5.22;;;;;;;19.20;79.05;101051.88;10177743;28;96830;-81
2023/06/23 05:54:21;;;;;;;7.63;5.20;;;;;;;19.25;79.04;101055.09;10177669;28;97066;-82
2023/06/23 05:59:29;;;;;;;6.78;4.95;;;;;;;19.28;79.18;101062.91;10176892;28;96664;-82
2023/06/23 06:04:39;;;;;;;7.35;5.05;;;;;;;19.32;79.23;101065.41;10177082;28;96958;-82
2023/06/23 06:09:45;;;;;;;7.68;5.35;;;;;;;19.42;78.70;101070.13;10177485;28;96501;-82
2023/06/23 06:14:50;;;;;;;6.97;5.05;;;;;;;19.64;78.14;101066.94;10176462;28;96943;-82
2023/06/23 06:19:55;;;;;;;7.65;5.40;;;;;;;20.04;77.35;101071.41;10177544;28;96625;-82
2023/06/23 06:25:02;;;;;;;7.00;5.03;;;;;;;20.17;77.02;101059.81;10176555;28;96708;-82
2023/06/23 06:30:07;;;;;;;7.03;5.05;;;;;;;20.49;75.89;101067.53;10176241;28;96802;-82
2023/06/23 06:35:13;;;;;;;7.75;5.38;;;;;;;20.67;75.38;101077.81;10175429;28;96646;-82
2023/06/23 06:40:23;;;;;;;6.75;5.40;;;;;;;20.84;75.05;101071.31;10175695;28;96649;-82
2023/06/23 06:45:26;;;;;;;7.88;5.13;;;;;;;21.02;74.41;101078.06;10175170;28;96781;-82
2023/06/23 06:50:31;;;;;;;9.30;5.88;;;;;;;21.16;73.95;101078.88;10175884;28;96812;-82
2023/06/23 06:55:38;;;;;;;11.15;6.80;;;;;;;21.29;73.48;101070.84;10175515;28;96605;-82
2023/06/23 07:00:43;;;;;;;7.30;5.35;;;;;;;21.47;73.00;101070.38;10175883;28;97475;-82
2023/06/23 07:05:46;;;;;;;7.22;4.90;;;;;;;21.65;72.76;101059.28;10175479;28;96620;-82
2023/06/23 07:10:51;;;;;;;7.80;5.03;;;;;;;21.73;71.85;101068.47;10176312;28;96844;-82
2023/06/23 07:15:54;;;;;;;7.13;5.38;;;;;;;21.98;71.70;101068.44;10175177;28;96739;-82
2023/06/23 07:20:58;;;;;;;7.22;5.38;;;;;;;22.13;70.90;101067.31;10175392;28;96724;-82
2023/06/23 07:26:04;;;;;;;7.90;5.47;;;;;;;22.33;70.18;101058.59;10173970;28;96850;-82
2023/06/23 07:31:08;;;;;;;7.75;5.47;;;;;;;22.59;69.89;101057.47;10175034;28;96807;-82
2023/06/23 07:36:11;;;;;;;6.72;5.22;;;;;;;22.82;69.20;101061.13;10174194;28;96965;-82
2023/06/23 07:41:16;;;;;;;6.20;4.75;;;;;;;23.05;68.68;101072.75;10174648;28;96601;-82
2023/06/23 07:46:19;;;;;;;6.57;4.75;;;;;;;23.29;68.14;101068.13;10174409;28;96831;-82
2023/06/23 07:51:22;;;;;;;6.57;4.70;;;;;;;23.32;68.03;101065.22;10177125;28;96673;-82
2023/06/23 07:56:27;;;;;;;7.53;4.97;;;;;;;23.57;67.57;101071.22;10180458;28;96607;-82
2023/06/23 08:01:30;;;;;;;7.32;5.07;;;;;;;23.73;66.80;101065.47;10181749;28;96956;-82
2023/06/23 08:06:34;;;;;;;5.83;4.60;;;;;;;23.89;66.18;101060.56;10180776;28;96762;-83
2023/06/23 08:11:39;;;;;;;6.17;5.13;;;;;;;24.18;65.52;101061.69;10180764;28;96675;-82
2023/06/23 08:16:43;;;;;;;7.47;5.30;;;;;;;24.37;65.09;101048.44;10179297;28;96738;-82
2023/06/23 08:21:46;;;;;;;8.80;5.20;;;;;;;24.44;64.60;101044.25;10180146;28;97848;-82
2023/06/23 08:26:51;;;;;;;7.23;5.50;;;;;;;24.66;63.67;101048.66;10180067;28;96925;-82
2023/06/23 08:31:54;;;;;;;5.78;4.47;;;;;;;24.78;63.34;101045.78;10180294;28;96986;-82
2023/06/23 08:36:58;;;;;;;6.83;5.20;;;;;;;24.95;62.50;101041.63;10179783;28;96760;-82
2023/06/23 08:42:04;;;;;;;5.97;4.57;;;;;;;25.24;62.09;101033.72;10179299;28;96820;-82
2023/06/23 08:47:12;;;;;;;6.22;4.30;;;;;;;25.63;61.90;101033.72;10178640;28;96771;-82
2023/06/23 08:52:17;;;;;;;6.43;5.00;;;;;;;25.84;60.85;101028.28;10140699;28;96570;-82
2023/06/23 08:57:22;;;;;;;6.50;4.50;;;;;;;26.11;60.13;101023.03;10154403;28;97291;-82
2023/06/23 09:02:25;;;;;;;5.20;4.22;;;;;;;26.29;59.48;101018.66;10179339;28;97057;-82
2023/06/23 09:07:29;;;;;;;5.32;3.90;;;;;;;26.29;58.50;101013.25;10177954;28;96782;-82
2023/06/23 09:12:35;;;;;;;5.57;3.92;;;;;;;26.52;57.88;101014.72;10178987;28;97036;-82
2023/06/23 09:17:40;;;;;;;5.30;4.00;;;;;;;26.66;57.02;101008.00;10178420;28;96728;-82
2023/06/23 09:22:45;;;;;;;6.65;4.10;;;;;;;26.80;56.73;100996.75;10178312;28;96723;-82
2023/06/23 09:27:50;;;;;;;5.88;4.20;;;;;;;26.97;56.00;101001.41;10178347;28;96811;-82
2023/06/23 09:32:53;;;;;;;5.38;3.92;;;;;;;26.72;54.95;100989.38;10178692;28;97233;-82
2023/06/23 09:37:57;;;;;;;5.30;3.55;;;;;;;27.15;54.50;100990.69;10177878;28;96623;-82
2023/06/23 09:43:01;;;;;;;5.88;4.15;;;;;;;27.39;54.62;100986.44;10177965;28;97112;-82
2023/06/23 09:48:16;;;;;;;5.75;4.15;;;;;;;27.29;53.79;100979.38;10177438;28;96855;-82
2023/06/23 09:53:21;;;;;;;5.15;3.80;;;;;;;27.41;53.25;100994.38;10177732;28;96733;-82
2023/06/23 09:58:29;;;;;;;5.85;4.45;;;;;;;27.57;52.85;100990.03;10176073;28;96633;-82
2023/06/23 10:03:33;;;;;;;5.45;3.67;;;;;;;27.69;52.57;100980.75;10177263;28;96819;-82
2023/06/23 10:08:39;;;;;;;5.07;3.75;;;;;;;27.95;52.12;100984.41;10176820;28;96778;-82
2023/06/23 10:13:45;;;;;;;5.50;3.78;;;;;;;28.16;51.86;100978.69;10175872;28;96878;-82
2023/06/23 10:18:49;;;;;;;6.63;4.13;;;;;;;28.18;50.88;100973.09;10176683;28;96815;-82
2023/06/23 10:23:57;;;;;;;5.03;3.83;;;;;;;28.38;50.96;100977.34;10176602;28;97350;-82
2023/06/23 10:29:05;;;;;;;6.55;3.70;;;;;;;28.60;50.38;100961.47;10176335;28;96700;-82
2023/06/23 10:34:12;;;;;;;5.13;3.67;;;;;;;28.70;50.29;100964.94;10177029;28;96804;-82
2023/06/23 10:39:17;;;;;;;5.20;3.63;;;;;;;28.94;50.08;100958.84;10176093;28;96874;-83
2023/06/23 10:44:23;;;;;;;5.47;3.67;;;;;;;28.76;49.17;100945.31;10175591;28;96789;-82
2023/06/23 10:49:27;;;;;;;5.40;3.58;;;;;;;29.13;49.55;100945.91;10174840;28;96678;-82
2023/06/23 10:54:31;;;;;;;5.55;3.50;;;;;;;29.37;49.16;100952.41;10175665;28;96705;-83
2023/06/23 10:59:35;;;;;;;5.43;3.90;;;;;;;29.43;48.59;100943.63;10175626;28;96717;-82
2023/06/23 11:04:41;;;;;;;5.10;3.85;;;;;;;29.81;48.43;100943.94;10175646;28;96977;-82
2023/06/23 11:09:47;;;;;;;5.53;3.58;;;;;;;29.90;47.55;100948.34;10175611;28;96698;-83
2023/06/23 11:14:52;;;;;;;4.82;3.63;;;;;;;30.02;46.93;100936.13;10174809;28;96928;-82
2023/06/23 11:19:55;;;;;;;5.10;3.40;;;;;;;30.16;45.55;100934.69;10175229;28;96651;-82
2023/06/23 11:25:04;;;;;;;;;;;;;;;30.25;44.67;100928.19;10178747;28;97531;-83
2023/06/23 11:30:18;;;;;;;4.60;3.15;;;;;;;30.23;45.04;100920.22;10182285;28;96683;-82
2023/06/23 11:35:22;;;;;;;4.13;2.90;;;;;;;30.37;43.65;100921.41;10181456;28;96792;-82
2023/06/23 11:40:28;;;;;;;;;;;;;;;30.68;43.84;100918.84;10180944;28;96664;-82
2023/06/23 11:45:33;;;;;;;3.97;3.08;;;;;;;30.70;43.29;100914.91;10180998;28;96895;-82
2023/06/23 11:50:37;;;;;;;6.30;3.67;;;;;;;30.79;42.63;100913.88;10181164;28;96602;-83
2023/06/23 11:55:42;;;;;;;4.57;2.97;;;;;;;31.11;42.35;100902.88;10180839;28;96740;-82
2023/06/23 12:00:46;;;;;;;4.35;3.25;;;;;;;31.35;42.25;100899.25;10180593;28;96760;-83
2023/06/23 12:05:49;;;;;;;3.70;2.45;;;;;;;31.21;41.21;100884.50;10181327;28;96608;-82
2023/06/23 12:10:52;;;;;;;;;;;;;;;31.27;41.17;100878.34;10181358;28;96740;-82
2023/06/23 12:15:58;;;;;;;3.73;2.97;;;;;;;31.59;41.67;100873.75;10180923;28;96732;-83
2023/06/23 12:21:01;;;;;;;4.50;2.90;;;;;;;31.95;42.07;100863.97;10180356;28;96737;-82
2023/06/23 12:26:06;;;;;;;4.25;3.20;;;;;;;32.31;42.16;100857.66;10180670;28;96762;-83
2023/06/23 12:31:11;;;;;;;4.82;3.42;;;;;;;32.50;40.88;100850.84;10179030;28;96824;-83
2023/06/23 12:36:16;;;;;;;3.85;2.88;;;;;;;32.08;40.35;100848.69;10179049;28;96748;-82
2023/06/23 12:41:23;;;;;;;4.47;3.35;;;;;;;32.52;42.09;100837.88;10179557;28;96749;-82
2023/06/23 12:46:29;;;;;;;3.95;2.88;;;;;;;32.40;40.66;100825.75;10179116;28;96635;-82
2023/06/23 12:51:33;;;;;;;4.53;3.38;;;;;;;32.69;41.10;100817.56;10179566;28;96888;-82
2023/06/23 12:56:37;;;;;;;4.78;3.25;;;;;;;32.58;40.45;100815.34;10179101;28;96844;-82
2023/06/23 13:01:41;;;;;;;4.63;3.20;;;;;;;32.89;39.62;100810.53;10179228;28;96891;-83
2023/06/23 13:06:45;;;;;;;5.30;3.92;;;;;;;32.82;39.80;100795.94;10179600;28;96702;-83
2023/06/23 13:11:48;;;;;;;6.18;4.20;;;;;;;32.94;38.95;100783.53;10178697;28;96842;-83
2023/06/23 13:16:52;;;;;;;4.40;3.08;;;;;;;32.91;39.29;100775.75;10178405;28;96864;-83
2023/06/23 13:21:56;;;;;;;4.03;2.90;;;;;;;33.18;39.51;100775.00;10177598;28;97163;-83
2023/06/23 13:26:59;;;;;;;3.65;2.78;;;;;;;33.03;38.51;100768.75;10178408;28;96795;-83
2023/06/23 13:32:04;;;;;;;3.78;3.33;;;;;;;33.15;39.36;100767.22;10178020;28;96726;-83
2023/06/23 13:37:26;;;;;;;4.25;2.70;;;;;;;33.44;38.72;100766.28;10175798;28;96756;-83
2023/06/23 13:42:29;;;;;;;3.35;2.90;;;;;;;33.54;37.84;100755.03;10177879;28;96587;-83
2023/06/23 13:47:36;;;;;;;3.15;2.53;;;;;;;33.33;37.03;100753.97;10177678;28;97075;-82
2023/06/23 13:52:40;;;;;;;3.10;2.50;;;;;;;33.35;37.33;100756.47;10177644;28;96619;-83
2023/06/23 13:57:44;;;;;;;3.38;2.45;;;;;;;33.58;36.84;100751.69;10177774;28;97364;-83
2023/06/23 14:02:49;;;;;;;3.30;2.90;;;;;;;33.61;36.55;100745.84;10177458;28;96732;-83
2023/06/23 14:07:53;;;;;;;3.38;2.58;;;;;;;33.80;36.04;100747.06;10176843;28;96811;-83
2023/06/23 14:12:56;;;;;;;3.65;2.83;;;;;;;33.67;36.43;100734.16;10175593;28;96742;-83
2023/06/23 14:18:01;;;;;;;4.90;3.25;;;;;;;33.88;36.54;100730.53;10176969;28;97380;-82
2023/06/23 14:23:04;;;;;;;3.88;2.80;;;;;;;34.17;36.48;100717.50;10176724;28;96729;-82
2023/06/23 14:28:07;;;;;;;3.97;3.20;;;;;;;34.39;35.68;100713.63;10176619;28;96668;-82
2023/06/23 14:33:13;;;;;;;3.88;2.88;;;;;;;34.61;34.75;100713.56;10176264;28;96701;-82
2023/06/23 14:38:16;;;;;;;3.42;2.65;;;;;;;34.39;35.73;100710.03;10176242;28;97094;-83
2023/06/23 14:43:20;;;;;;;3.45;2.55;;;;;;;34.30;35.19;100700.34;10175794;28;96658;-82
2023/06/23 14:48:25;;;;;;;4.03;3.08;;;;;;;34.44;35.49;100693.91;10176445;28;96730;-82
2023/06/23 14:53:30;;;;;;;2.88;2.45;;;;;;;34.45;35.73;100688.25;10175937;28;96737;-82
2023/06/23 14:58:33;;;;;;;4.10;3.15;;;;;;;35.07;34.89;100692.66;10175616;28;96740;-82
2023/06/23 15:03:38;;;;;;;3.10;2.60;;;;;;;34.98;35.65;100681.06;10181531;28;96841;-82
2023/06/23 15:08:41;;;;;;;3.60;2.67;;;;;;;35.08;35.89;100683.41;10182923;28;96959;-82
2023/06/23 15:13:46;;;;;;;4.22;2.90;;;;;;;34.82;35.79;100684.16;10182212;28;96741;-82
2023/06/23 15:18:52;;;;;;;3.95;3.38;;;;;;;35.08;34.14;100667.00;10182044;28;96690;-83
2023/06/23 15:23:55;;;;;;;3.67;2.95;;;;;;;35.04;34.26;100674.78;10182459;28;96776;-82
2023/06/23 15:28:59;;;;;;;3.95;3.30;;;;;;;35.35;34.05;100665.94;10182274;28;96595;-83
2023/06/23 15:34:04;;;;;;;3.60;2.80;;;;;;;35.17;34.98;100665.72;10181605;28;97021;-82
2023/06/23 15:39:07;;;;;;;4.13;3.00;;;;;;;34.78;34.67;100661.03;10182962;28;96998;-82
2023/06/23 15:44:11;;;;;;;3.25;2.67;;;;;;;34.58;35.25;100660.09;10181050;28;96910;-82
2023/06/23 15:49:15;;;;;;;4.03;2.90;;;;;;;34.84;34.61;100657.44;10181576;28;96729;-83
2023/06/23 15:54:19;;;;;;;4.40;2.97;;;;;;;34.97;34.09;100662.13;10180073;28;97461;-82
2023/06/23 15:59:22;;;;;;;4.82;3.00;;;;;;;34.88;34.55;100649.66;10181099;28;96982;-82
2023/06/23 16:04:26;;;;;;;3.40;2.97;;;;;;;34.59;36.30;100639.94;10181057;28;96678;-82
2023/06/23 16:09:30;;;;;;;3.85;3.05;;;;;;;34.40;36.60;100640.69;10180735;28;96867;-82
2023/06/23 16:14:33;;;;;;;3.65;2.60;;;;;;;34.42;35.52;100633.13;10179350;28;96767;-82
2023/06/23 16:19:38;;;;;;;3.78;2.95;;;;;;;34.35;36.19;100633.06;10180344;28;96895;-83
2023/06/23 16:24:41;;;;;;;3.38;2.78;;;;;;;34.41;36.00;100621.34;10180429;28;96685;-83
2023/06/23 16:29:44;;;;;;;3.70;2.70;;;;;;;34.29;35.74;100617.50;10180729;28;96810;-82
2023/06/23 16:34:49;;;;;;;4.28;3.15;;;;;;;34.38;36.40;100615.44;10179942;28;97023;-82
2023/06/23 16:39:54;;;;;;;4.07;3.20;;;;;;;34.22;36.87;100613.06;10180010;28;96836;-82
2023/06/23 16:44:58;;;;;;;3.65;2.72;;;;;;;34.11;36.51;100605.47;10178363;28;97326;-82
2023/06/23 16:50:02;;;;;;;4.20;2.95;;;;;;;34.16;36.14;100602.97;10179502;28;96612;-82
2023/06/23 16:55:06;;;;;;;3.67;2.78;;;;;;;34.15;36.26;100595.78;10179440;28;96992;-83
2023/06/23 17:00:11;;;;;;;3.90;2.70;;;;;;;33.97;36.14;100598.25;10179424;28;96602;-82
2023/06/23 17:05:16;;;;;;;3.40;2.70;;;;;;;34.10;36.21;100596.41;10178948;28;96737;-82
2023/06/23 17:10:19;;;;;;;4.20;2.97;;;;;;;34.18;36.09;100592.69;10178873;28;96740;-82
2023/06/23 17:15:22;;;;;;;4.00;3.20;;;;;;;34.08;35.70;100598.50;10166711;23;97649;-82
2023/06/23 17:20:27;;;;;;;3.90;3.30;;;;;;;34.21;36.17;100593.09;10125827;28;96972;-82
2023/06/23 17:25:30;;;;;;;3.45;2.78;;;;;;;34.16;36.78;100592.03;10137828;28;96636;-82
2023/06/23 17:30:34;;;;;;;4.30;3.50;;;;;;;33.75;38.24;100585.69;10138586;28;97246;-82
2023/06/23 17:35:38;;;;;;;3.88;3.47;;;;;;;33.50;38.82;100577.16;10109195;28;96711;-82
2023/06/23 17:40:42;;;;;;;5.80;3.70;;;;;;;33.33;39.53;100575.78;10138181;28;96635;-82
2023/06/23 17:45:45;;;;;;;4.35;3.67;;;;;;;33.00;39.65;100582.84;10137984;28;96831;-82
2023/06/23 17:50:49;;;;;;;4.78;3.53;;;;;;;32.93;40.01;100587.41;10137843;28;96768;-82
2023/06/23 17:55:53;;;;;;;4.15;3.60;;;;;;;32.77;40.72;100593.06;10137510;28;96841;-82
2023/06/23 18:00:56;;;;;;;5.13;3.60;;;;;;;32.68;41.17;100592.38;10137314;28;97642;-82
2023/06/23 18:06:01;;;;;;;4.78;3.50;;;;;;;32.54;41.28;100603.31;10137765;28;96984;-82
2023/06/23 18:11:04;;;;;;;5.13;3.63;;;;;;;32.35;41.36;100591.16;10138134;28;96664;-82
2023/06/23 18:16:07;;;;;;;4.03;3.47;;;;;;;32.24;42.14;100591.63;10136408;28;96974;-82
2023/06/23 18:21:12;;;;;;;5.18;3.60;;;;;;;32.18;42.66;100587.81;10137161;28;96895;-82
2023/06/23 18:26:15;;;;;;;4.97;3.80;;;;;;;32.13;42.32;100590.28;10135794;28;97154;-82
2023/06/23 18:31:19;;;;;;;5.80;3.88;;;;;;;32.03;42.37;100588.88;10135567;28;97326;-87
2023/06/23 18:36:23;;;;;;;4.50;3.60;;;;;;;32.05;42.55;100587.63;10128944;28;97056;-77
2023/06/23 18:41:27;;;;;;;4.00;3.25;;;;;;;32.00;42.82;100592.81;10124634;28;99421;-79
2023/06/23 18:46:30;;;;;;;5.43;3.75;;;;;;;31.89;43.89;100597.91;10133099;28;97213;-76
2023/06/23 18:51:38;;;;;;;5.30;3.75;;;;;;;31.75;44.08;100598.72;10132568;28;97119;-75
2023/06/23 18:56:42;;;;;;;4.32;3.53;;;;;;;31.67;44.06;100598.81;10130743;28;96926;-78
2023/06/23 19:01:45;;;;;;;5.40;3.72;;;;;;;31.57;43.64;100601.81;10135000;28;97159;-76
2023/06/23 19:06:50;;;;;;;;;;;;;;;31.51;44.01;100607.16;10133653;28;96903;-77
2023/06/23 19:11:54;;;;;;;4.35;3.42;;;;;;;31.46;44.28;100606.88;10132352;28;98712;-77
2023/06/23 19:16:57;;;;;;;5.30;3.72;;;;;;;31.32;44.99;100614.00;10121333;28;97455;-75
2023/06/23 19:22:02;;;;;;;4.88;3.63;;;;;;;31.20;45.70;100620.84;10139321;28;96815;-78
2023/06/23 19:27:07;;;;;;;5.35;4.35;;;;;;;31.02;47.23;100623.06;10137277;28;97128;-76
2023/06/23 19:32:10;;;;;;;5.85;4.28;;;;;;;30.68;48.58;100615.31;10133275;28;97105;-77
2023/06/23 19:37:14;;;;;;;;;;;;;;;30.43;50.14;100623.78;10138542;28;97656;-77
2023/06/23 19:42:17;;;;;;;6.78;4.20;;;;;;;30.19;49.67;100625.63;10137419;28;96802;-77
2023/06/23 19:47:21;;;;;;;7.47;4.63;;;;;;;30.05;50.59;100630.91;10125533;28;97492;-77
2023/06/23 19:52:26;;;;;;;6.03;4.78;;;;;;;29.91;50.87;100628.94;10139450;28;96712;-77
2023/06/23 19:57:29;;;;;;;4.75;4.03;;;;;;;29.79;50.92;100630.34;10138312;28;96945;-77
2023/06/23 20:02:33;;;;;;;5.93;4.95;;;;;;;29.63;51.89;100630.38;10143592;28;96641;-77
2023/06/23 20:07:38;;;;;;;;;;;;;;;29.38;53.04;100640.38;10143250;28;96802;-77
2023/06/23 20:12:41;;;;;;;6.13;4.28;;;;;;;29.19;52.72;100641.59;10143547;28;97050;-77
2023/06/23 20:17:44;;;;;;;5.25;4.07;;;;;;;29.10;53.14;100636.38;10142502;28;96746;-77
2023/06/23 20:22:50;;;;;;;;;;;;;;;28.94;53.81;100639.06;10143732;28;98644;-80
2023/06/23 20:27:53;;;;;;;6.18;4.18;;;;;;;28.83;53.40;100648.34;10142255;28;96861;-78
2023/06/23 20:32:56;;;;;;;5.70;4.28;;;;;;;28.62;54.22;100647.13;10141592;28;96835;-78
2023/06/23 20:38:01;;;;;;;7.32;4.70;;;;;;;28.61;54.15;100646.28;10143706;28;96892;-77
2023/06/23 20:43:04;;;;;;;5.10;4.20;;;;;;;28.69;54.26;100659.81;10144018;28;97029;-78
2023/06/23 20:48:08;;;;;;;6.10;4.40;;;;;;;28.64;53.81;100658.63;10140536;28;97281;-78
2023/06/23 20:53:12;;;;;;;;;;;;;;;28.42;54.84;100662.81;10131452;28;97447;-78
2023/06/23 20:58:16;;;;;;;5.80;4.18;;;;;;;28.28;54.76;100657.13;10136818;28;98391;-80
2023/06/23 21:03:19;;;;;;;5.40;4.20;;;;;;;28.18;55.17;100651.88;10131429;28;96908;-79
2023/06/23 21:08:24;;;;;;;5.95;4.25;;;;;;;28.04;55.97;100663.31;10137040;28;98195;-80
2023/06/23 21:13:27;;;;;;;6.82;5.10;;;;;;;27.89;56.30;100663.06;10137788;28;96776;-80
2023/06/23 21:18:31;;;;;;;8.68;4.95;;;;;;;27.83;56.78;100665.56;10138243;28;96832;-80
2023/06/23 21:23:35;;;;;;;6.97;4.88;;;;;;;27.78;56.51;100665.19;10137767;28;97483;-80
2023/06/23 21:28:39;;;;;;;6.57;4.28;;;;;;;27.66;57.28;100669.16;10137004;28;96882;-79
2023/06/23 21:33:43;;;;;;;6.65;4.75;;;;;;;27.57;57.75;100667.41;10138286;28;96697;-79
2023/06/23 21:38:48;;;;;;;6.30;4.82;;;;;;;27.62;57.51;100659.66;10138008;28;97061;-80
2023/06/23 21:43:51;;;;;;;5.20;4.55;;;;;;;27.47;58.11;100654.00;10123113;28;96910;-79
2023/06/23 21:48:56;;;;;;;6.35;4.80;;;;;;;27.34;58.31;100652.72;10127020;28;96776;-79
2023/06/23 21:54:01;;;;;;;6.30;4.45;;;;;;;27.40;58.40;100655.63;10116407;28;98657;-79
2023/06/23 21:59:04;;;;;;;6.10;4.50;;;;;;;27.29;58.32;100655.88;10118252;28;97597;-79
2023/06/23 22:04:08;;;;;;;6.72;4.82;;;;;;;27.30;58.74;100656.75;10098791;28;97262;-79
2023/06/23 22:09:13;;;;;;;6.82;4.70;;;;;;;27.34;58.11;100641.91;10112789;28;97341;-79
2023/06/23 22:14:19;;;;;;;6.20;4.80;;;;;;;27.41;57.89;100642.94;10099381;28;97573;-79
2023/06/23 22:19:23;;;;;;;6.57;4.57;;;;;;;27.39;58.21;100648.50;10115038;28;96778;-79
2023/06/23 22:24:28;;;;;;;6.22;4.60;;;;;;;27.22;58.82;100640.44;10102120;28;97937;-79
2023/06/23 22:29:32;;;;;;;6.60;5.00;;;;;;;27.29;58.83;100631.56;10100994;28;96968;-79
2023/06/23 22:34:35;;;;;;;7.47;4.68;;;;;;;26.93;59.50;100633.44;10112860;28;97626;-79
2023/06/23 22:39:40;;;;;;;6.20;4.43;;;;;;;26.78;60.41;100626.06;10127472;28;96942;-79
2023/06/23 22:44:45;;;;;;;6.53;4.63;;;;;;;26.84;59.86;100633.50;10113281;28;96786;-79
2023/06/23 22:49:49;;;;;;;6.63;4.80;;;;;;;26.65;60.40;100629.13;10132624;28;96867;-79
2023/06/23 22:54:53;;;;;;;8.40;5.05;;;;;;;26.61;60.67;100629.59;10132290;28;96846;-80
2023/06/23 22:59:57;;;;;;;7.13;5.10;;;;;;;26.51;60.69;100618.84;10134206;28;96926;-80
2023/06/23 23:05:00;;;;;;;7.05;5.15;;;;;;;26.31;61.94;100628.06;10134005;28;96837;-79
2023/06/23 23:10:06;;;;;;;6.03;4.47;;;;;;;25.97;62.95;100612.66;10132727;28;96811;-79
2023/06/23 23:15:10;;;;;;;7.38;5.28;;;;;;;25.97;62.63;100616.16;10132214;28;96863;-79
2023/06/23 23:20:14;;;;;;;6.80;4.90;;;;;;;25.84;63.12;100613.00;10123918;28;98732;-79
2023/06/23 23:25:20;;;;;;;7.00;5.03;;;;;;;25.69;63.94;100607.22;10133235;28;97748;-78